Warsaw, NY (14569)

7:26 AM EST on February 09, 2016 (GMT -0500)
Synergy Farm | | Change Station
CLOSE
Current Station
Personal Weather Station
Location: Wyoming, NY
Elevation: 1080 ft
Nearby Weather Stations

Elev 1080 ft 42.83 °N, 78.05 °W | Updated 9 minutes ago

Overcast
Overcast
32.2 °F
Feels Like 32 °F
N
0.0
Wind Variable Wind from South
Gusts 0.0 mph

Today
High -- | Low -- °F
--% Chance of Precip.
Yesterday
High -- | Low -- °F
Precip. -- in
Pressure 29.55 in
Visibility 9.0 miles
Clouds Overcast 6000 ft
Windchill 32 °F
Dew Point 31 °F
Humidity 95%
Rainfall 0.00 in
Snow Depth Not available.
7:18 AM 5:35 PM
New Moon, 1% visible
METAR KDSV 091154Z AUTO 18003KT 9SM OVC060 01/M02 A2951 RMK AO2 SLP007 T00061017 10006 21011 55000
Pressure 29.55 in
Visibility 9.0 miles
Clouds Overcast 6000 ft
Windchill 32 °F
Dew Point 31 °F
Humidity 95%
Rainfall 0.00 in
Snow Depth Not available.
7:18 AM 5:35 PM
New Moon, 1% visible
METAR KDSV 091154Z AUTO 18003KT 9SM OVC060 01/M02 A2951 RMK AO2 SLP007 T00061017 10006 21011 55000

10-Day Weather Forecast

Almanac

Astronomy

Feb. 09, 2016 Rise Set
Actual Time
Civil Twilight
Nautical Twilight
Astronomical Twilight
Moon
Length of Visible Light
Length of Day
Tomorrow will be .
, % of the Moon is Illuminated

Today's Extremes

State Highs State Lows

Community

WunderPhotos

Upload Photos

1,891,588 photos uploaded!

WunderBlog® & News

Nearby

Air Quality

  Air Quality AQ Index Pollutant
Not available.

Snow Depth

Station Depth Elevation

Earthquake Activity

City Distance Mag. Time & Date
Minimum magnitude displayed is 2.5.

Coastal Water Temperatures

Place Temperature

Stations

Nearby Weather Stations

Station Location Temp. Windchill Dew Point Humidity Wind Precip. Elev Updated Type
                   

Watches & Warnings

There are currently no watches in effect.